Time;durP1;ratioP1;P1;durP2;ratioP2;P2;SDS_P1;SDS_P2;PMS_P1;PMS_P2;Temp;Humidity;BMP_temperature;BMP_pressure;BME280_temperature;BME280_humidity;BME280_pressure;Samples;Min_cycle;Max_cycle;Signal;HPM_P1;HPM_P2
2022/09/07 00:00:31;;;;;;;4.37;2.43;;;21.30;99.90;;;;;;5015714;28;20490;-69
2022/09/07 00:02:57;;;;;;;5.27;2.73;;;21.30;99.90;;;;;;5016148;28;20461;-68
2022/09/07 00:05:23;;;;;;;2.47;2.27;;;21.30;99.90;;;;;;5015051;28;20263;-69
2022/09/07 00:07:48;;;;;;;5.57;2.20;;;21.40;99.90;;;;;;5015743;28;20518;-69
2022/09/07 00:10:14;;;;;;;2.00;1.70;;;21.50;99.90;;;;;;5015618;28;20170;-68
2022/09/07 00:12:40;;;;;;;2.43;2.00;;;21.50;99.90;;;;;;5015615;28;20203;-68
2022/09/07 00:15:11;;;;;;;5.00;2.40;;;21.40;99.90;;;;;;5015406;28;20707;-69
2022/09/07 00:17:37;;;;;;;4.77;2.17;;;21.30;99.90;;;;;;5015454;28;20149;-69
2022/09/07 00:20:04;;;;;;;2.87;2.50;;;21.30;99.90;;;;;;5015345;28;20411;-69
2022/09/07 00:22:30;;;;;;;2.83;1.97;;;21.30;99.90;;;;;;5015190;28;20179;-69
2022/09/07 00:24:56;;;;;;;3.57;2.47;;;21.30;99.90;;;;;;5015591;28;20964;-69
2022/09/07 00:27:22;;;;;;;7.77;2.23;;;21.30;99.90;;;;;;5015503;28;20476;-69
2022/09/07 00:29:48;;;;;;;3.30;2.43;;;21.40;99.90;;;;;;5014983;28;20174;-68
2022/09/07 00:32:13;;;;;;;6.30;2.13;;;21.60;99.90;;;;;;5015143;28;20610;-69
2022/09/07 00:34:39;;;;;;;2.77;1.90;;;21.70;99.90;;;;;;5015040;28;20200;-68
2022/09/07 00:37:04;;;;;;;2.10;1.90;;;21.80;99.90;;;;;;5020409;28;20648;-68
2022/09/07 00:39:30;;;;;;;6.10;1.90;;;21.80;99.90;;;;;;5027227;28;20262;-69
2022/09/07 00:41:55;;;;;;;2.03;1.77;;;21.80;99.90;;;;;;5034744;28;20199;-69
2022/09/07 00:44:53;;;;;;;2.60;2.00;;;21.70;99.90;;;;;;5034381;28;20196;-69
2022/09/07 00:47:28;;;;;;;4.20;1.90;;;21.70;99.90;;;;;;5030361;28;20183;-69
2022/09/07 00:49:58;;;;;;;2.90;2.40;;;21.70;99.90;;;;;;5034877;28;20473;-69
2022/09/07 00:52:27;;;;;;;3.10;2.23;;;21.70;99.90;;;;;;5034890;28;20387;-69
2022/09/07 00:54:57;;;;;;;3.77;2.10;;;21.70;99.90;;;;;;5034439;28;20458;-68
2022/09/07 00:57:26;;;;;;;2.40;2.00;;;21.80;99.90;;;;;;5034751;28;20394;-69
2022/09/07 00:59:53;;;;;;;4.00;2.83;;;21.70;99.90;;;;;;5017225;28;20403;-68
2022/09/07 01:02:19;;;;;;;2.97;2.07;;;21.80;99.90;;;;;;5014627;28;20541;-69
2022/09/07 01:04:48;;;;;;;4.40;2.17;;;21.80;99.90;;;;;;5013623;28;20494;-69
2022/09/07 01:07:13;;;;;;;2.23;1.97;;;21.80;99.90;;;;;;5014353;28;20411;-69
2022/09/07 01:09:41;;;;;;;2.50;1.87;;;21.80;99.90;;;;;;5014499;28;20414;-68
2022/09/07 01:12:07;;;;;;;2.50;1.97;;;22.00;99.90;;;;;;5014692;28;20179;-69
2022/09/07 01:14:38;;;;;;;3.00;2.00;;;22.00;99.90;;;;;;5014025;28;20470;-69
2022/09/07 01:17:41;;;;;;;3.70;1.83;;;22.00;99.90;;;;;;5014855;28;20497;-69
2022/09/07 01:20:34;;;;;;;4.37;2.20;;;22.10;99.90;;;;;;5014306;28;20435;-69
2022/09/07 01:23:30;;;;;;;5.30;2.50;;;22.20;99.90;;;;;;5014722;28;20415;-69
2022/09/07 01:26:13;;;;;;;3.47;2.00;;;22.20;99.90;;;;;;5014437;28;20454;-69
2022/09/07 01:28:39;;;;;;;2.47;1.90;;;22.30;99.90;;;;;;5013883;28;20398;-69
2022/09/07 01:31:08;;;;;;;3.03;2.13;;;22.20;99.90;;;;;;5014018;28;20406;-69
2022/09/07 01:33:39;;;;;;;2.90;1.80;;;22.20;99.90;;;;;;5014053;28;20454;-69
2022/09/07 01:36:17;;;;;;;3.43;2.37;;;22.30;99.90;;;;;;5013920;28;20403;-68
2022/09/07 01:38:48;;;;;;;3.90;2.23;;;22.20;99.90;;;;;;5014278;28;20786;-69
2022/09/07 01:41:17;;;;;;;3.37;2.00;;;22.20;99.90;;;;;;5014191;28;20394;-69
2022/09/07 01:44:07;;;;;;;3.27;2.40;;;22.20;99.90;;;;;;5013630;28;20458;-69
2022/09/07 01:46:42;;;;;;;3.37;2.20;;;22.20;99.90;;;;;;5014119;28;20872;-69
2022/09/07 01:49:19;;;;;;;4.30;2.43;;;22.30;99.90;;;;;;5014100;28;20383;-69
2022/09/07 01:51:49;;;;;;;3.37;2.27;;;22.30;99.90;;;;;;5013825;28;20383;-69
2022/09/07 01:54:29;;;;;;;2.83;2.10;;;22.20;99.90;;;;;;5013611;28;20476;-69
2022/09/07 01:56:59;;;;;;;3.77;2.27;;;22.30;99.90;;;;;;5014025;28;20391;-69
2022/09/07 01:59:31;;;;;;;2.30;2.10;;;22.30;99.90;;;;;;5013507;28;20868;-69
2022/09/07 02:02:15;;;;;;;3.83;2.50;;;22.20;99.90;;;;;;5014150;28;20888;-69
2022/09/07 02:05:14;;;;;;;3.60;2.50;;;22.20;99.90;;;;;;5011194;28;20453;-69
2022/09/07 02:07:47;;;;;;;4.27;2.40;;;22.30;99.90;;;;;;5014079;28;20392;-68
2022/09/07 02:10:39;;;;;;;3.40;2.50;;;22.40;99.90;;;;;;5013521;28;20399;-69
2022/09/07 02:13:11;;;;;;;3.90;2.30;;;22.50;99.90;;;;;;5008691;28;20903;-68
2022/09/07 02:15:57;;;;;;;4.17;2.50;;;22.50;99.90;;;;;;5013414;28;20400;-69
2022/09/07 02:18:25;;;;;;;3.63;2.20;;;22.50;99.90;;;;;;5013486;28;20940;-69
2022/09/07 02:20:55;;;;;;;2.77;2.40;;;22.50;99.90;;;;;;5013095;28;20437;-69
2022/09/07 02:23:36;;;;;;;3.27;2.40;;;22.60;99.90;;;;;;5013385;28;20962;-69
2022/09/07 02:26:05;;;;;;;3.37;2.13;;;22.70;99.90;;;;;;5013815;28;20470;-69
2022/09/07 02:28:33;;;;;;;4.20;2.60;;;22.60;99.90;;;;;;5013486;28;20446;-68
2022/09/07 02:30:59;;;;;;;5.07;2.50;;;22.70;99.90;;;;;;5013480;28;20417;-69
2022/09/07 02:33:26;;;;;;;3.50;2.40;;;22.70;99.90;;;;;;5013879;28;20446;-69
2022/09/07 02:35:52;;;;;;;6.03;2.63;;;22.70;99.90;;;;;;5012914;28;20403;-69
2022/09/07 02:38:18;;;;;;;4.20;2.30;;;22.70;99.90;;;;;;5013180;28;20494;-68
2022/09/07 02:40:54;;;;;;;4.70;3.10;;;22.70;99.90;;;;;;5013433;28;20691;-68
2022/09/07 02:43:22;;;;;;;3.50;2.40;;;22.50;99.90;;;;;;5013253;28;20418;-68
2022/09/07 02:46:16;;;;;;;4.40;2.83;;;22.60;99.90;;;;;;5013171;28;20411;-68
2022/09/07 02:48:45;;;;;;;5.90;2.97;;;22.40;99.90;;;;;;5013434;28;20395;-68
2022/09/07 02:51:40;;;;;;;5.07;2.60;;;22.10;99.90;;;;;;5012823;28;20987;-68
2022/09/07 02:54:30;;;;;;;3.73;2.40;;;21.80;99.90;;;;;;5013025;28;20880;-69
2022/09/07 02:57:03;;;;;;;7.97;2.80;;;21.70;99.90;;;;;;5013391;28;20410;-69
2022/09/07 02:59:34;;;;;;;4.80;3.07;;;21.70;99.90;;;;;;5013137;28;20387;-69
2022/09/07 03:02:18;;;;;;;3.70;2.67;;;21.80;99.90;;;;;;5013647;28;20714;-69
2022/09/07 03:04:54;;;;;;;6.20;3.17;;;22.00;99.90;;;;;;5012440;28;20434;-69
2022/09/07 03:07:29;;;;;;;5.00;3.00;;;22.00;99.90;;;;;;5012984;28;20378;-68
2022/09/07 03:09:56;;;;;;;3.10;2.77;;;22.20;99.90;;;;;;5013255;28;20391;-68
2022/09/07 03:12:22;;;;;;;4.30;2.80;;;22.10;99.90;;;;;;5013094;28;20497;-69
2022/09/07 03:14:48;;;;;;;6.27;3.37;;;22.20;99.90;;;;;;5012682;28;20942;-68
2022/09/07 03:17:14;;;;;;;7.47;3.00;;;22.00;99.90;;;;;;5013409;28;20403;-68
2022/09/07 03:19:40;;;;;;;3.90;2.80;;;21.80;99.90;;;;;;5013222;28;20235;-68
2022/09/07 03:22:06;;;;;;;4.10;2.67;;;22.00;99.90;;;;;;5012885;28;20498;-69
2022/09/07 03:24:32;;;;;;;7.10;2.50;;;22.10;99.90;;;;;;5012765;28;20431;-69
2022/09/07 03:26:58;;;;;;;7.80;3.73;;;22.10;99.90;;;;;;5012840;28;20410;-68
2022/09/07 03:29:24;;;;;;;3.63;2.60;;;22.00;99.90;;;;;;5017560;28;20180;-68
2022/09/07 03:31:50;;;;;;;2.60;2.10;;;22.00;99.90;;;;;;5027374;28;20414;-69
2022/09/07 03:34:16;;;;;;;5.00;3.13;;;21.90;99.90;;;;;;5035956;28;20252;-69
2022/09/07 03:36:42;;;;;;;4.47;3.20;;;21.90;99.90;;;;;;5016800;28;20179;-69
2022/09/07 03:39:10;;;;;;;4.50;2.70;;;21.80;99.90;;;;;;5016202;28;20393;-68
2022/09/07 03:41:36;;;;;;;7.03;3.10;;;21.60;99.90;;;;;;5016338;28;20403;-69
2022/09/07 03:44:03;;;;;;;3.43;2.63;;;21.50;99.90;;;;;;5015994;28;20771;-68
2022/09/07 03:46:29;;;;;;;4.87;3.10;;;21.50;99.90;;;;;;5016029;28;20709;-69
2022/09/07 03:48:55;;;;;;;4.23;2.83;;;21.40;99.90;;;;;;5016084;28;20494;-69
2022/09/07 03:51:21;;;;;;;4.63;2.77;;;21.30;99.90;;;;;;5015919;28;20175;-68
2022/09/07 03:53:47;;;;;;;4.33;2.77;;;21.20;99.90;;;;;;5016036;28;20219;-68
2022/09/07 03:56:16;;;;;;;5.37;3.33;;;21.10;99.90;;;;;;5015862;28;20430;-69
2022/09/07 03:58:43;;;;;;;6.37;3.10;;;21.00;99.90;;;;;;5015822;28;20255;-68
2022/09/07 04:01:14;;;;;;;5.17;2.60;;;20.90;99.90;;;;;;5015772;28;20406;-69
2022/09/07 04:03:41;;;;;;;3.63;3.10;;;20.80;99.90;;;;;;5015973;28;20474;-69
2022/09/07 04:06:06;;;;;;;6.27;3.30;;;20.70;99.90;;;;;;5014893;28;20583;-68
2022/09/07 04:08:34;;;;;;;6.27;4.03;;;20.60;99.90;;;;;;5016214;28;20988;-68
2022/09/07 04:11:02;;;;;;;5.50;3.07;;;20.70;99.90;;;;;;5015666;28;20168;-68
2022/09/07 04:13:29;;;;;;;5.33;3.17;;;20.70;99.90;;;;;;5015437;28;20462;-68
2022/09/07 04:15:55;;;;;;;4.97;2.90;;;20.80;99.90;;;;;;5015498;28;20406;-68
2022/09/07 04:18:21;;;;;;;5.13;2.90;;;20.90;99.90;;;;;;5015569;28;20488;-68
2022/09/07 04:20:49;;;;;;;3.90;2.87;;;20.90;99.90;;;;;;5015283;28;20415;-68
2022/09/07 04:23:16;;;;;;;3.83;3.20;;;20.70;99.90;;;;;;5015610;28;20462;-68
2022/09/07 04:25:49;;;;;;;5.03;3.40;;;20.70;99.90;;;;;;5015666;28;20422;-68
2022/09/07 04:28:16;;;;;;;3.90;3.10;;;20.70;99.90;;;;;;5015903;28;20796;-68
2022/09/07 04:30:42;;;;;;;3.77;3.10;;;20.70;99.90;;;;;;5015314;28;20403;-68
2022/09/07 04:33:08;;;;;;;6.03;3.67;;;20.70;99.90;;;;;;5015306;28;20459;-68
2022/09/07 04:35:39;;;;;;;4.40;3.50;;;20.60;99.90;;;;;;5014925;28;20592;-68
2022/09/07 04:38:05;;;;;;;5.40;3.70;;;20.70;99.90;;;;;;5015176;28;20404;-69
2022/09/07 04:40:31;;;;;;;4.73;2.97;;;20.60;99.90;;;;;;5014258;28;20394;-68
2022/09/07 04:42:57;;;;;;;4.37;2.97;;;20.60;99.90;;;;;;5015310;28;20837;-69
2022/09/07 04:45:22;;;;;;;3.23;2.90;;;20.60;99.90;;;;;;5015005;28;20502;-68
2022/09/07 04:47:48;;;;;;;7.83;3.23;;;20.60;99.90;;;;;;5014891;28;20704;-68
2022/09/07 04:50:15;;;;;;;5.90;3.40;;;20.50;99.90;;;;;;5014852;28;20168;-69
2022/09/07 04:52:41;;;;;;;5.83;3.40;;;20.30;99.90;;;;;;5015268;28;20572;-69
2022/09/07 04:55:07;;;;;;;5.93;3.23;;;20.30;99.90;;;;;;5015042;28;20403;-69
2022/09/07 04:57:33;;;;;;;4.87;3.17;;;20.40;99.90;;;;;;5014654;28;20407;-69
2022/09/07 04:59:59;;;;;;;5.17;3.50;;;20.40;99.90;;;;;;5014265;28;20198;-68
2022/09/07 05:02:24;;;;;;;5.93;3.60;;;20.30;99.90;;;;;;5015508;28;20172;-69
2022/09/07 05:04:50;;;;;;;7.63;3.53;;;20.40;99.90;;;;;;5014187;28;20649;-69
2022/09/07 05:07:16;;;;;;;3.80;3.50;;;20.40;99.90;;;;;;5014561;28;20176;-68
2022/09/07 05:09:41;;;;;;;5.60;4.13;;;20.30;99.90;;;;;;5014999;28;20172;-68
2022/09/07 05:12:07;;;;;;;3.00;2.70;;;20.30;99.90;;;;;;5014639;28;20226;-68
2022/09/07 05:14:33;;;;;;;3.73;3.33;;;20.40;99.90;;;;;;5014674;28;20580;-68
2022/09/07 05:16:59;;;;;;;4.70;3.57;;;20.40;99.90;;;;;;5014516;28;20176;-68
2022/09/07 05:19:26;;;;;;;5.27;3.73;;;20.40;99.90;;;;;;5014436;28;20414;-69
2022/09/07 05:21:52;;;;;;;3.70;3.00;;;20.40;99.90;;;;;;5013906;28;20418;-68
2022/09/07 05:24:18;;;;;;;4.33;3.40;;;20.40;99.90;;;;;;5014419;28;20427;-68
2022/09/07 05:26:44;;;;;;;4.80;3.63;;;20.40;99.90;;;;;;5014151;28;20249;-69
2022/09/07 05:29:10;;;;;;;5.33;4.10;;;20.50;99.90;;;;;;5014504;28;20502;-69
2022/09/07 05:31:35;;;;;;;6.20;3.67;;;20.50;99.90;;;;;;5014360;28;20718;-69
2022/09/07 05:34:01;;;;;;;3.80;3.33;;;20.50;99.90;;;;;;5014053;28;20550;-68
2022/09/07 05:36:28;;;;;;;4.40;4.00;;;20.50;99.90;;;;;;5013784;28;20179;-68
2022/09/07 05:38:55;;;;;;;5.93;3.60;;;20.50;99.90;;;;;;5014375;28;20407;-69
2022/09/07 05:41:25;;;;;;;5.50;3.23;;;20.60;99.90;;;;;;5014493;28;20888;-68
2022/09/07 05:43:53;;;;;;;6.23;3.17;;;20.70;99.90;;;;;;5013531;28;20435;-68
2022/09/07 05:46:19;;;;;;;5.30;3.50;;;20.70;99.90;;;;;;5014171;28;20545;-68
2022/09/07 05:48:45;;;;;;;6.60;3.83;;;20.60;99.90;;;;;;5013696;28;20422;-68
2022/09/07 05:51:12;;;;;;;9.97;3.60;;;20.70;99.90;;;;;;5013503;28;20411;-69
2022/09/07 05:53:40;;;;;;;5.93;3.07;;;20.80;99.90;;;;;;5013551;28;20250;-68
2022/09/07 05:56:06;;;;;;;6.93;3.43;;;20.90;99.90;;;;;;5015454;28;20791;-68
2022/09/07 05:58:32;;;;;;;6.40;3.80;;;21.00;99.90;;;;;;5013655;28;20888;-68
2022/09/07 06:01:11;;;;;;;6.23;4.30;;;21.00;99.90;;;;;;5013854;28;20406;-67
2022/09/07 06:03:39;;;;;;;10.20;4.47;;;20.90;99.90;;;;;;5013604;28;20454;-68
2022/09/07 06:06:08;;;;;;;7.17;3.57;;;21.00;99.90;;;;;;5012795;28;20780;-67
2022/09/07 06:08:36;;;;;;;4.53;3.80;;;21.00;99.90;;;;;;5013704;28;20775;-68
2022/09/07 06:11:06;;;;;;;5.77;4.33;;;21.00;99.90;;;;;;5013421;28;20414;-68
2022/09/07 06:13:33;;;;;;;7.93;4.27;;;21.10;99.90;;;;;;5013486;28;20477;-68
2022/09/07 06:16:00;;;;;;;8.97;3.70;;;21.10;99.90;;;;;;5014251;28;20418;-68
2022/09/07 06:18:30;;;;;;;3.97;2.97;;;21.20;99.90;;;;;;5013652;28;20413;-68
2022/09/07 06:21:02;;;;;;;6.13;3.40;;;21.30;99.90;;;;;;5013167;28;20415;-68
2022/09/07 06:23:29;;;;;;;6.40;3.87;;;21.50;99.90;;;;;;5018013;28;20911;-67
2022/09/07 06:25:55;;;;;;;4.53;3.10;;;21.50;99.90;;;;;;5032024;28;20418;-68
2022/09/07 06:28:26;;;;;;;5.17;3.10;;;21.60;99.90;;;;;;5033106;28;20410;-67
2022/09/07 06:30:52;;;;;;;7.80;3.13;;;21.70;99.90;;;;;;5033511;28;20170;-67
2022/09/07 06:33:18;;;;;;;7.37;3.67;;;21.90;99.90;;;;;;5033035;28;20450;-68
2022/09/07 06:35:54;;;;;;;8.63;3.90;;;22.00;99.90;;;;;;5025803;28;20184;-69
2022/09/07 06:38:20;;;;;;;6.07;3.83;;;22.10;99.90;;;;;;5013165;28;20263;-68
2022/09/07 06:40:45;;;;;;;8.93;4.50;;;22.40;99.90;;;;;;5013152;28;20438;-69
2022/09/07 06:43:11;;;;;;;7.90;4.30;;;22.50;99.90;;;;;;5013092;28;20195;-69
2022/09/07 06:45:36;;;;;;;6.27;3.13;;;22.70;99.90;;;;;;5013285;28;20176;-68
2022/09/07 06:48:02;;;;;;;4.20;3.20;;;22.80;99.90;;;;;;5012854;28;20179;-69
2022/09/07 06:50:28;;;;;;;8.53;3.43;;;23.00;99.90;;;;;;5012985;28;20184;-69
2022/09/07 06:52:53;;;;;;;21.73;4.00;;;23.20;99.90;;;;;;5012818;28;20192;-68
2022/09/07 06:55:19;;;;;;;6.10;3.47;;;23.40;99.90;;;;;;5013135;28;20625;-68
2022/09/07 06:57:44;;;;;;;6.40;4.93;;;23.60;99.90;;;;;;5013556;28;20176;-68
2022/09/07 07:00:10;;;;;;;5.57;3.37;;;23.80;99.90;;;;;;5013507;28;20664;-68
2022/09/07 07:02:36;;;;;;;5.10;3.77;;;23.90;99.90;;;;;;5013740;28;20172;-69
2022/09/07 07:05:01;;;;;;;4.73;3.17;;;24.00;99.90;;;;;;5016194;28;20441;-67
2022/09/07 07:07:27;;;;;;;6.13;3.07;;;24.00;99.90;;;;;;5016394;28;20188;-68
2022/09/07 07:09:53;;;;;;;7.53;3.13;;;24.00;99.90;;;;;;5016809;28;20168;-67
2022/09/07 07:12:18;;;;;;;7.60;3.03;;;24.00;99.90;;;;;;5016952;28;20176;-68
2022/09/07 07:14:44;;;;;;;7.40;3.37;;;23.90;99.90;;;;;;5016484;28;20211;-68
2022/09/07 07:17:09;;;;;;;10.27;4.23;;;24.00;99.90;;;;;;5016857;28;20178;-69
2022/09/07 07:19:35;;;;;;;9.80;3.60;;;24.00;99.90;;;;;;5016932;28;20255;-68
2022/09/07 07:22:01;;;;;;;8.40;3.40;;;24.00;99.90;;;;;;5016417;28;20194;-68
2022/09/07 07:24:26;;;;;;;5.40;2.97;;;24.10;99.90;;;;;;5016656;28;20200;-68
2022/09/07 07:26:52;;;;;;;5.37;3.23;;;24.10;99.90;;;;;;5016804;28;20531;-68
2022/09/07 07:29:18;;;;;;;5.53;2.90;;;23.70;99.90;;;;;;5016423;28;20251;-69
2022/09/07 07:31:44;;;;;;;7.30;3.13;;;23.80;99.90;;;;;;5016680;28;20164;-69
2022/09/07 07:34:10;;;;;;;5.27;3.10;;;23.80;99.90;;;;;;5016297;28;20450;-67
2022/09/07 07:36:36;;;;;;;3.50;2.53;;;23.60;99.90;;;;;;5016144;28;20302;-67
2022/09/07 07:39:02;;;;;;;5.33;2.80;;;23.80;99.90;;;;;;5016831;28;20460;-67
2022/09/07 07:41:30;;;;;;;3.50;2.90;;;24.00;99.90;;;;;;5016825;28;20641;-70
2022/09/07 07:43:57;;;;;;;7.83;2.60;;;24.00;99.90;;;;;;5015201;28;20434;-67
2022/09/07 07:46:26;;;;;;;3.00;2.63;;;24.20;99.90;;;;;;5015909;28;20410;-69
2022/09/07 07:48:52;;;;;;;4.23;3.23;;;24.10;99.90;;;;;;5016538;28;20407;-69
2022/09/07 07:51:18;;;;;;;6.17;2.93;;;24.30;99.90;;;;;;5015817;28;20410;-69
2022/09/07 07:53:44;;;;;;;5.60;3.10;;;24.20;99.90;;;;;;5015956;28;20459;-69
2022/09/07 07:56:10;;;;;;;6.80;3.40;;;24.30;99.90;;;;;;5016187;28;20758;-69
2022/09/07 07:58:37;;;;;;;3.27;2.53;;;24.40;99.90;;;;;;5015894;28;20168;-69
2022/09/07 08:01:09;;;;;;;9.93;3.13;;;24.30;99.90;;;;;;5015730;28;20441;-69
2022/09/07 08:03:37;;;;;;;4.37;2.77;;;24.40;99.90;;;;;;5015655;28;20470;-69
2022/09/07 08:06:07;;;;;;;5.20;3.10;;;24.30;99.90;;;;;;5015408;28;20415;-69
2022/09/07 08:08:34;;;;;;;6.53;3.17;;;24.30;99.90;;;;;;5015847;28;20388;-68
2022/09/07 08:11:07;;;;;;;5.03;2.77;;;24.60;99.90;;;;;;5015786;28;20425;-69
2022/09/07 08:13:36;;;;;;;4.37;2.40;;;24.50;99.90;;;;;;5015423;28;20882;-69
2022/09/07 08:16:04;;;;;;;4.80;2.67;;;24.60;99.90;;;;;;5014401;28;20395;-69
2022/09/07 08:18:31;;;;;;;7.07;2.60;;;24.90;99.90;;;;;;5015751;28;20403;-68
2022/09/07 08:21:01;;;;;;;5.33;2.97;;;25.00;99.90;;;;;;5015432;28;20399;-68
2022/09/07 08:23:27;;;;;;;8.13;3.20;;;24.90;99.90;;;;;;5015412;28;20771;-69
2022/09/07 08:25:54;;;;;;;7.43;3.33;;;24.90;99.90;;;;;;5015530;28;20399;-69
2022/09/07 08:28:22;;;;;;;5.57;2.90;;;24.90;99.90;;;;;;5015654;28;20168;-68
2022/09/07 08:30:48;;;;;;;8.90;3.13;;;24.70;99.90;;;;;;5015098;28;20407;-69
2022/09/07 08:33:14;;;;;;;6.07;3.13;;;24.80;99.90;;;;;;5015400;28;20553;-69
2022/09/07 08:35:40;;;;;;;5.17;3.53;;;24.80;99.90;;;;;;5015034;28;20439;-69
2022/09/07 08:38:06;;;;;;;6.17;2.70;;;24.80;99.90;;;;;;5015327;28;20426;-69
2022/09/07 08:40:35;;;;;;;7.13;2.90;;;25.00;99.90;;;;;;5015235;28;20285;-69
2022/09/07 08:43:37;;;;;;;6.77;3.33;;;24.90;99.90;;;;;;5015197;28;20455;-68
2022/09/07 08:46:35;;;;;;;5.30;2.70;;;25.00;99.90;;;;;;5014896;28;20383;-68
2022/09/07 08:49:03;;;;;;;5.53;3.13;;;25.20;99.90;;;;;;5013502;28;20908;-69
2022/09/07 08:51:46;;;;;;;6.33;3.37;;;25.10;99.90;;;;;;5014489;28;20502;-68
2022/09/07 08:54:15;;;;;;;6.93;3.53;;;25.20;99.90;;;;;;5014548;28;20966;-69
2022/09/07 08:56:47;;;;;;;3.10;2.80;;;25.30;99.90;;;;;;5014771;28;20410;-69
2022/09/07 08:59:39;;;;;;;5.10;2.80;;;25.50;99.90;;;;;;5015670;28;20726;-68
2022/09/07 09:02:13;;;;;;;6.10;2.70;;;25.60;99.90;;;;;;5014219;28;20403;-69
2022/09/07 09:04:39;;;;;;;5.60;3.43;;;25.60;99.90;;;;;;5014425;28;20957;-69
2022/09/07 09:07:20;;;;;;;4.57;2.70;;;25.40;99.90;;;;;;5014472;28;20908;-69
2022/09/07 09:10:09;;;;;;;4.70;2.80;;;25.70;99.90;;;;;;5014382;28;20411;-69
2022/09/07 09:13:11;;;;;;;5.97;3.13;;;26.00;99.90;;;;;;5014667;28;20911;-68
2022/09/07 09:16:08;;;;;;;6.03;3.33;;;25.70;99.90;;;;;;5012830;28;20961;-69
2022/09/07 09:18:49;;;;;;;4.67;2.80;;;25.70;99.90;;;;;;5031852;28;20817;-69
2022/09/07 09:21:17;;;;;;;6.70;3.37;;;25.60;99.90;;;;;;5034102;28;20383;-69
2022/09/07 09:23:47;;;;;;;5.90;3.17;;;25.70;99.90;;;;;;5034201;28;20454;-69
2022/09/07 09:26:22;;;;;;;5.13;2.90;;;26.00;99.90;;;;;;5033988;28;20906;-69
2022/09/07 09:28:47;;;;;;;7.20;2.50;;;26.30;99.90;;;;;;5034311;28;20472;-69
2022/09/07 09:31:23;;;;;;;4.77;2.70;;;26.60;99.90;;;;;;5034108;28;20445;-69
2022/09/07 09:34:08;;;;;;;7.50;2.30;;;27.00;99.90;;;;;;5033672;28;20193;-69
2022/09/07 09:36:51;;;;;;;7.03;3.20;;;26.60;99.90;;;;;;5021105;28;20410;-71
2022/09/07 09:39:30;;;;;;;6.43;3.10;;;26.00;99.90;;;;;;5014330;28;20380;-68
2022/09/07 09:42:13;;;;;;;4.27;2.70;;;26.00;99.90;;;;;;5014381;28;20398;-67
2022/09/07 09:44:39;;;;;;;6.50;3.60;;;26.30;99.90;;;;;;5018367;28;20443;-68
2022/09/07 09:47:05;;;;;;;3.83;2.47;;;26.50;99.90;;;;;;5020393;28;20453;-68
2022/09/07 09:49:36;;;;;;;4.60;2.87;;;27.00;99.90;;;;;;5014013;28;20402;-68
2022/09/07 09:52:04;;;;;;;5.90;2.93;;;27.40;99.90;;;;;;5014010;28;20415;-68
2022/09/07 09:54:38;;;;;;;6.50;3.23;;;27.60;99.90;;;;;;5013794;28;20450;-68
2022/09/07 09:57:04;;;;;;;4.17;3.20;;;27.70;99.90;;;;;;5014257;28;20413;-68
2022/09/07 09:59:32;;;;;;;4.37;3.07;;;27.30;99.90;;;;;;5013811;28;20399;-68
2022/09/07 10:01:58;;;;;;;6.47;2.90;;;27.30;99.90;;;;;;5013997;28;20430;-68
2022/09/07 10:04:28;;;;;;;5.40;2.80;;;26.90;99.90;;;;;;5014524;28;20423;-68
2022/09/07 10:06:58;;;;;;;3.57;2.40;;;26.60;99.90;;;;;;5013281;28;20423;-68
2022/09/07 10:09:36;;;;;;;3.33;2.70;;;26.70;99.90;;;;;;5013941;28;20477;-68
2022/09/07 10:12:04;;;;;;;3.33;2.30;;;27.00;99.90;;;;;;5013954;28;20391;-68
2022/09/07 10:14:40;;;;;;;9.80;2.90;;;27.10;99.90;;;;;;5013788;28;20462;-68
2022/09/07 10:17:30;;;;;;;3.27;2.20;;;27.20;99.90;;;;;;5013829;28;20383;-68
2022/09/07 10:20:16;;;;;;;5.30;2.47;;;27.00;99.90;;;;;;5013818;28;20409;-67
2022/09/07 10:22:51;;;;;;;3.80;2.90;;;27.00;99.90;;;;;;5006054;28;20967;-68
2022/09/07 10:25:40;;;;;;;3.97;2.30;;;27.20;99.90;;;;;;5013977;28;20800;-67
2022/09/07 10:28:09;;;;;;;4.00;2.43;;;27.30;99.90;;;;;;5013332;28;20919;-69
2022/09/07 10:30:59;;;;;;;4.57;2.87;;;27.00;99.90;;;;;;5013589;28;20469;-69
2022/09/07 10:33:40;;;;;;;6.20;2.60;;;26.80;99.90;;;;;;5013413;28;20537;-69
2022/09/07 10:36:41;;;;;;;5.07;2.87;;;27.00;99.90;;;;;;5013597;28;20981;-69
2022/09/07 10:39:13;;;;;;;3.73;2.67;;;27.10;99.90;;;;;;5008418;28;20883;-69
2022/09/07 10:41:47;;;;;;;4.13;2.90;;;26.90;99.90;;;;;;5017549;28;20411;-69
2022/09/07 10:44:40;;;;;;;6.40;2.93;;;27.40;99.90;;;;;;5017219;28;20434;-68
2022/09/07 10:47:27;;;;;;;6.57;2.90;;;28.00;99.90;;;;;;5017267;28;20756;-68
2022/09/07 10:50:02;;;;;;;5.30;2.90;;;28.10;99.90;;;;;;5017632;28;20471;-69
2022/09/07 10:52:37;;;;;;;6.53;3.20;;;29.10;99.90;;;;;;5017011;28;20382;-69
2022/09/07 10:55:18;;;;;;;5.20;2.83;;;28.70;99.90;;;;;;5016769;28;20741;-69
2022/09/07 10:58:11;;;;;;;4.67;2.77;;;27.70;99.90;;;;;;5017536;28;20510;-69
2022/09/07 11:00:55;;;;;;;3.47;2.40;;;27.60;99.90;;;;;;5016875;28;20372;-69
2022/09/07 11:03:51;;;;;;;8.90;3.10;;;27.70;99.90;;;;;;5016834;28;20466;-69
2022/09/07 11:06:21;;;;;;;6.60;3.10;;;27.50;99.90;;;;;;5016667;28;20818;-69
2022/09/07 11:09:24;;;;;;;6.00;3.30;;;27.40;99.90;;;;;;5016859;28;20407;-69
2022/09/07 11:12:18;;;;;;;6.17;3.43;;;26.90;99.90;;;;;;5016992;28;20453;-69
2022/09/07 11:15:01;;;;;;;11.73;3.50;;;26.80;99.90;;;;;;5011826;28;20481;-69
2022/09/07 11:17:30;;;;;;;5.27;3.20;;;26.80;99.90;;;;;;5017098;28;21010;-69
2022/09/07 11:20:15;;;;;;;6.20;3.43;;;26.60;99.90;;;;;;5016592;28;20949;-69
2022/09/07 11:22:52;;;;;;;5.47;3.20;;;27.30;99.90;;;;;;5016157;28;20406;-69
2022/09/07 11:25:38;;;;;;;7.20;2.87;;;29.70;99.90;;;;;;5016764;28;20756;-69
2022/09/07 11:28:11;;;;;;;6.30;2.77;;;30.60;98.90;;;;;;5016462;28;20780;-69
2022/09/07 11:30:56;;;;;;;6.43;2.73;;;32.70;97.80;;;;;;5016419;28;20383;-70
2022/09/07 11:33:28;;;;;;;5.33;2.67;;;34.30;93.20;;;;;;5016499;28;20454;-69
2022/09/07 11:36:01;;;;;;;6.30;2.80;;;33.30;92.40;;;;;;5017060;28;20770;-69
2022/09/07 11:39:02;;;;;;;5.00;3.00;;;32.70;93.50;;;;;;5015928;28;20391;-69
2022/09/07 11:41:33;;;;;;;3.50;2.23;;;34.50;90.20;;;;;;4994797;28;20425;-69
2022/09/07 11:44:20;;;;;;;5.40;2.83;;;35.10;87.60;;;;;;5016135;28;20446;-70
2022/09/07 11:46:46;;;;;;;7.20;2.80;;;37.00;80.90;;;;;;5016078;28;20399;-70
2022/09/07 11:49:21;;;;;;;6.50;2.30;;;37.10;77.20;;;;;;5015900;28;20446;-69
2022/09/07 11:52:07;;;;;;;5.30;2.50;;;37.80;73.80;;;;;;5015683;28;20462;-70
2022/09/07 11:54:45;;;;;;;4.03;2.83;;;36.80;75.90;;;;;;5016135;28;20458;-70
2022/09/07 11:57:13;;;;;;;4.97;2.80;;;38.30;71.00;;;;;;5015836;28;20888;-69
2022/09/07 12:00:04;;;;;;;4.27;2.13;;;37.20;70.60;;;;;;5016203;28;20487;-70
2022/09/07 12:03:02;;;;;;;7.27;2.53;;;37.10;70.30;;;;;;5016106;28;20391;-69
2022/09/07 12:05:52;;;;;;;6.10;2.13;;;37.00;69.20;;;;;;5048454;23;21007;-70
2022/09/07 12:08:18;;;;;;;5.30;2.80;;;34.60;75.60;;;;;;4995562;28;20384;-69
2022/09/07 12:10:55;;;;;;;3.30;1.93;;;33.00;79.00;;;;;;4995288;28;20402;-70
2022/09/07 12:13:52;;;;;;;4.67;2.30;;;31.90;82.60;;;;;;4995214;28;20191;-69
2022/09/07 12:17:11;;;;;;;6.53;2.63;;;34.00;77.70;;;;;;4994997;28;20432;-69
2022/09/07 12:19:37;;;;;;;4.07;2.40;;;36.00;71.90;;;;;;4994685;28;20492;-69
2022/09/07 12:22:04;;;;;;;5.20;2.10;;;36.80;70.30;;;;;;4994890;28;20407;-69
2022/09/07 12:24:35;;;;;;;5.73;2.10;;;37.40;67.90;;;;;;4994780;28;20168;-70
2022/09/07 12:27:03;;;;;;;5.03;2.40;;;36.00;69.50;;;;;;4994977;28;20408;-69
2022/09/07 12:29:30;;;;;;;6.00;2.80;;;37.50;68.20;;;;;;4995285;28;20809;-69
2022/09/07 12:31:58;;;;;;;3.40;2.67;;;36.70;68.50;;;;;;4994786;28;20623;-70
2022/09/07 12:34:32;;;;;;;5.60;2.07;;;36.50;67.10;;;;;;4994636;28;20530;-69
2022/09/07 12:37:19;;;;;;;2.70;2.47;;;34.60;70.60;;;;;;5002923;28;20422;-69
2022/09/07 12:39:45;;;;;;;4.17;2.40;;;33.00;75.10;;;;;;5006856;28;20514;-69
2022/09/07 12:42:11;;;;;;;3.07;2.23;;;32.30;76.90;;;;;;5014785;28;20498;-70
2022/09/07 12:44:37;;;;;;;2.90;1.70;;;32.50;78.40;;;;;;5014355;28;20169;-70
2022/09/07 12:47:28;;;;;;;2.23;1.70;;;33.60;74.30;;;;;;5014644;28;20407;-70
2022/09/07 12:50:32;;;;;;;5.53;2.40;;;33.50;72.20;;;;;;5013616;28;20283;-70
2022/09/07 12:53:21;;;;;;;4.50;1.80;;;35.20;71.50;;;;;;4991933;28;20502;-71
2022/09/07 12:56:15;;;;;;;2.10;1.70;;;37.70;62.70;;;;;;5013084;28;20482;-70
2022/09/07 12:58:59;;;;;;;3.13;1.90;;;39.30;58.40;;;;;;5009050;28;20877;-70
2022/09/07 13:01:39;;;;;;;3.93;1.90;;;39.90;56.80;;;;;;5012827;28;20453;-69
2022/09/07 13:04:23;;;;;;;5.07;2.47;;;38.20;57.90;;;;;;5013867;28;20387;-70
2022/09/07 13:07:06;;;;;;;4.57;1.90;;;38.00;58.50;;;;;;5020539;28;20418;-70
2022/09/07 13:09:51;;;;;;;3.90;1.90;;;36.60;59.50;;;;;;5034706;28;20386;-69
2022/09/07 13:12:30;;;;;;;3.57;2.10;;;34.10;64.70;;;;;;5033542;28;20382;-70